sensor_id;sensor_type;location;lat;lon;timestamp;P1;durP1;ratioP1;P2;durP2;ratioP2
7783;SDS011;19359;51.402;6.778;2024-01-06T00:02:17;194.00;;;97.85;;
7783;SDS011;19359;51.402;6.778;2024-01-06T00:04:44;206.45;;;100.97;;
7783;SDS011;19359;51.402;6.778;2024-01-06T00:07:12;217.45;;;102.22;;
7783;SDS011;19359;51.402;6.778;2024-01-06T00:09:39;207.10;;;97.00;;
7783;SDS011;19359;51.402;6.778;2024-01-06T00:12:06;231.82;;;102.60;;
7783;SDS011;19359;51.402;6.778;2024-01-06T00:14:33;264.13;;;104.75;;
7783;SDS011;19359;51.402;6.778;2024-01-06T00:17:00;267.40;;;106.22;;
7783;SDS011;19359;51.402;6.778;2024-01-06T00:19:26;231.60;;;104.13;;
7783;SDS011;19359;51.402;6.778;2024-01-06T00:21:53;280.20;;;111.68;;
7783;SDS011;19359;51.402;6.778;2024-01-06T00:24:21;282.13;;;104.80;;
7783;SDS011;19359;51.402;6.778;2024-01-06T00:26:48;282.42;;;110.50;;
7783;SDS011;19359;51.402;6.778;2024-01-06T00:29:15;289.77;;;105.32;;
7783;SDS011;19359;51.402;6.778;2024-01-06T00:31:41;283.67;;;109.32;;
7783;SDS011;19359;51.402;6.778;2024-01-06T00:34:08;287.75;;;114.07;;
7783;SDS011;19359;51.402;6.778;2024-01-06T00:36:35;285.30;;;105.95;;
7783;SDS011;19359;51.402;6.778;2024-01-06T00:39:02;311.45;;;112.75;;
7783;SDS011;19359;51.402;6.778;2024-01-06T00:41:30;285.30;;;105.32;;
7783;SDS011;19359;51.402;6.778;2024-01-06T00:43:57;332.35;;;115.35;;
7783;SDS011;19359;51.402;6.778;2024-01-06T00:46:24;323.23;;;117.82;;
7783;SDS011;19359;51.402;6.778;2024-01-06T00:48:51;310.55;;;110.07;;
7783;SDS011;19359;51.402;6.778;2024-01-06T00:51:18;303.58;;;112.82;;
7783;SDS011;19359;51.402;6.778;2024-01-06T00:53:45;312.13;;;114.47;;
7783;SDS011;19359;51.402;6.778;2024-01-06T00:56:12;296.08;;;110.43;;
7783;SDS011;19359;51.402;6.778;2024-01-06T00:58:40;317.00;;;112.15;;
7783;SDS011;19359;51.402;6.778;2024-01-06T01:01:07;339.98;;;112.43;;
7783;SDS011;19359;51.402;6.778;2024-01-06T01:03:34;325.10;;;113.38;;
7783;SDS011;19359;51.402;6.778;2024-01-06T01:06:01;357.48;;;117.97;;
7783;SDS011;19359;51.402;6.778;2024-01-06T01:08:27;340.05;;;108.20;;
7783;SDS011;19359;51.402;6.778;2024-01-06T01:10:55;375.40;;;119.20;;
7783;SDS011;19359;51.402;6.778;2024-01-06T01:13:22;392.55;;;119.57;;
7783;SDS011;19359;51.402;6.778;2024-01-06T01:15:50;406.35;;;119.47;;
7783;SDS011;19359;51.402;6.778;2024-01-06T01:18:17;476.65;;;127.00;;
7783;SDS011;19359;51.402;6.778;2024-01-06T01:20:44;351.40;;;114.50;;
7783;SDS011;19359;51.402;6.778;2024-01-06T01:23:11;368.70;;;115.90;;
7783;SDS011;19359;51.402;6.778;2024-01-06T01:25:37;394.27;;;120.10;;
7783;SDS011;19359;51.402;6.778;2024-01-06T01:28:04;372.58;;;117.28;;
7783;SDS011;19359;51.402;6.778;2024-01-06T01:30:31;382.25;;;120.95;;
7783;SDS011;19359;51.402;6.778;2024-01-06T01:32:59;349.85;;;120.15;;
7783;SDS011;19359;51.402;6.778;2024-01-06T01:35:26;372.65;;;122.18;;
7783;SDS011;19359;51.402;6.778;2024-01-06T01:37:53;391.67;;;122.00;;
7783;SDS011;19359;51.402;6.778;2024-01-06T01:40:19;398.38;;;120.30;;
7783;SDS011;19359;51.402;6.778;2024-01-06T01:42:46;397.23;;;122.80;;
7783;SDS011;19359;51.402;6.778;2024-01-06T01:45:13;415.75;;;123.55;;
7783;SDS011;19359;51.402;6.778;2024-01-06T01:47:40;400.08;;;119.05;;
7783;SDS011;19359;51.402;6.778;2024-01-06T01:50:08;395.85;;;121.53;;
7783;SDS011;19359;51.402;6.778;2024-01-06T01:52:36;404.00;;;123.78;;
7783;SDS011;19359;51.402;6.778;2024-01-06T01:55:04;463.65;;;126.03;;
7783;SDS011;19359;51.402;6.778;2024-01-06T01:57:31;511.08;;;134.77;;
7783;SDS011;19359;51.402;6.778;2024-01-06T01:59:58;522.90;;;131.13;;
7783;SDS011;19359;51.402;6.778;2024-01-06T02:02:28;528.72;;;140.15;;
7783;SDS011;19359;51.402;6.778;2024-01-06T02:04:55;523.45;;;137.55;;
7783;SDS011;19359;51.402;6.778;2024-01-06T02:07:24;518.10;;;138.77;;
7783;SDS011;19359;51.402;6.778;2024-01-06T02:09:50;403.00;;;121.82;;
7783;SDS011;19359;51.402;6.778;2024-01-06T02:12:17;424.10;;;125.00;;
7783;SDS011;19359;51.402;6.778;2024-01-06T02:14:44;410.15;;;122.40;;
7783;SDS011;19359;51.402;6.778;2024-01-06T02:17:11;432.27;;;123.93;;
7783;SDS011;19359;51.402;6.778;2024-01-06T02:19:37;435.77;;;125.22;;
7783;SDS011;19359;51.402;6.778;2024-01-06T02:22:06;462.58;;;128.73;;
7783;SDS011;19359;51.402;6.778;2024-01-06T02:24:32;462.50;;;130.82;;
7783;SDS011;19359;51.402;6.778;2024-01-06T02:26:59;472.48;;;129.68;;
7783;SDS011;19359;51.402;6.778;2024-01-06T02:29:26;460.15;;;126.60;;
7783;SDS011;19359;51.402;6.778;2024-01-06T02:31:53;463.23;;;126.30;;
7783;SDS011;19359;51.402;6.778;2024-01-06T02:34:19;502.00;;;131.25;;
7783;SDS011;19359;51.402;6.778;2024-01-06T02:36:46;486.83;;;129.60;;
7783;SDS011;19359;51.402;6.778;2024-01-06T02:39:14;487.52;;;128.23;;
7783;SDS011;19359;51.402;6.778;2024-01-06T02:41:41;513.35;;;136.23;;
7783;SDS011;19359;51.402;6.778;2024-01-06T02:44:08;485.85;;;134.63;;
7783;SDS011;19359;51.402;6.778;2024-01-06T02:46:34;475.33;;;130.77;;
7783;SDS011;19359;51.402;6.778;2024-01-06T02:49:01;472.33;;;130.55;;
7783;SDS011;19359;51.402;6.778;2024-01-06T02:51:28;457.05;;;126.90;;
7783;SDS011;19359;51.402;6.778;2024-01-06T02:53:54;474.35;;;132.00;;
7783;SDS011;19359;51.402;6.778;2024-01-06T02:56:23;478.70;;;133.30;;
7783;SDS011;19359;51.402;6.778;2024-01-06T02:58:49;446.55;;;125.97;;
7783;SDS011;19359;51.402;6.778;2024-01-06T03:01:17;453.02;;;125.47;;
7783;SDS011;19359;51.402;6.778;2024-01-06T03:03:44;463.92;;;126.63;;
7783;SDS011;19359;51.402;6.778;2024-01-06T03:06:10;488.58;;;131.07;;
7783;SDS011;19359;51.402;6.778;2024-01-06T03:08:37;464.48;;;127.30;;
7783;SDS011;19359;51.402;6.778;2024-01-06T03:11:04;484.30;;;126.72;;
7783;SDS011;19359;51.402;6.778;2024-01-06T03:13:32;520.55;;;132.48;;
7783;SDS011;19359;51.402;6.778;2024-01-06T03:16:01;495.63;;;122.70;;
7783;SDS011;19359;51.402;6.778;2024-01-06T03:18:29;465.33;;;118.13;;
7783;SDS011;19359;51.402;6.778;2024-01-06T03:20:56;496.67;;;123.65;;
7783;SDS011;19359;51.402;6.778;2024-01-06T03:23:23;475.95;;;118.60;;
7783;SDS011;19359;51.402;6.778;2024-01-06T03:25:49;479.70;;;116.82;;
7783;SDS011;19359;51.402;6.778;2024-01-06T03:28:16;500.42;;;124.88;;
7783;SDS011;19359;51.402;6.778;2024-01-06T03:30:44;562.50;;;126.93;;
7783;SDS011;19359;51.402;6.778;2024-01-06T03:33:11;498.95;;;120.18;;
7783;SDS011;19359;51.402;6.778;2024-01-06T03:35:38;468.90;;;114.13;;
7783;SDS011;19359;51.402;6.778;2024-01-06T03:38:05;465.40;;;114.20;;
7783;SDS011;19359;51.402;6.778;2024-01-06T03:40:31;466.20;;;112.45;;
7783;SDS011;19359;51.402;6.778;2024-01-06T03:42:58;509.90;;;115.35;;
7783;SDS011;19359;51.402;6.778;2024-01-06T03:45:25;517.10;;;115.75;;
7783;SDS011;19359;51.402;6.778;2024-01-06T03:47:53;529.83;;;118.15;;
7783;SDS011;19359;51.402;6.778;2024-01-06T03:50:20;521.03;;;115.50;;
7783;SDS011;19359;51.402;6.778;2024-01-06T03:52:47;499.15;;;115.18;;
7783;SDS011;19359;51.402;6.778;2024-01-06T03:55:14;507.45;;;116.05;;
7783;SDS011;19359;51.402;6.778;2024-01-06T03:57:41;518.30;;;116.10;;
7783;SDS011;19359;51.402;6.778;2024-01-06T04:00:08;536.45;;;118.78;;
7783;SDS011;19359;51.402;6.778;2024-01-06T04:02:36;528.88;;;112.45;;
7783;SDS011;19359;51.402;6.778;2024-01-06T04:05:04;532.92;;;115.85;;
7783;SDS011;19359;51.402;6.778;2024-01-06T04:07:31;539.30;;;116.53;;
7783;SDS011;19359;51.402;6.778;2024-01-06T04:09:57;525.30;;;114.18;;
7783;SDS011;19359;51.402;6.778;2024-01-06T04:12:24;531.40;;;115.93;;
7783;SDS011;19359;51.402;6.778;2024-01-06T04:14:51;563.28;;;120.95;;
7783;SDS011;19359;51.402;6.778;2024-01-06T04:17:17;550.20;;;116.20;;
7783;SDS011;19359;51.402;6.778;2024-01-06T04:19:43;559.22;;;116.10;;
7783;SDS011;19359;51.402;6.778;2024-01-06T04:22:12;605.28;;;122.80;;
7783;SDS011;19359;51.402;6.778;2024-01-06T04:24:39;587.92;;;124.35;;
7783;SDS011;19359;51.402;6.778;2024-01-06T04:27:05;585.55;;;121.15;;
7783;SDS011;19359;51.402;6.778;2024-01-06T04:29:32;584.78;;;124.97;;
7783;SDS011;19359;51.402;6.778;2024-01-06T04:31:59;617.03;;;124.43;;
7783;SDS011;19359;51.402;6.778;2024-01-06T04:34:26;584.63;;;124.68;;
7783;SDS011;19359;51.402;6.778;2024-01-06T04:36:52;576.70;;;120.25;;
7783;SDS011;19359;51.402;6.778;2024-01-06T04:39:20;580.42;;;125.07;;
7783;SDS011;19359;51.402;6.778;2024-01-06T04:41:47;636.88;;;131.88;;
7783;SDS011;19359;51.402;6.778;2024-01-06T04:44:14;665.00;;;129.13;;
7783;SDS011;19359;51.402;6.778;2024-01-06T04:46:41;674.00;;;131.00;;
7783;SDS011;19359;51.402;6.778;2024-01-06T04:49:07;676.00;;;131.70;;
7783;SDS011;19359;51.402;6.778;2024-01-06T04:51:34;644.75;;;127.93;;
7783;SDS011;19359;51.402;6.778;2024-01-06T04:54:01;595.35;;;122.13;;
7783;SDS011;19359;51.402;6.778;2024-01-06T04:56:29;596.20;;;124.03;;
7783;SDS011;19359;51.402;6.778;2024-01-06T04:58:56;610.25;;;124.60;;
7783;SDS011;19359;51.402;6.778;2024-01-06T05:01:23;603.22;;;124.40;;
7783;SDS011;19359;51.402;6.778;2024-01-06T05:03:50;585.90;;;120.00;;
7783;SDS011;19359;51.402;6.778;2024-01-06T05:06:17;600.78;;;122.55;;
7783;SDS011;19359;51.402;6.778;2024-01-06T05:08:44;607.17;;;124.75;;
7783;SDS011;19359;51.402;6.778;2024-01-06T05:11:11;607.80;;;120.05;;
7783;SDS011;19359;51.402;6.778;2024-01-06T05:13:39;627.67;;;125.55;;
7783;SDS011;19359;51.402;6.778;2024-01-06T05:16:07;626.50;;;124.60;;
7783;SDS011;19359;51.402;6.778;2024-01-06T05:18:34;622.63;;;121.95;;
7783;SDS011;19359;51.402;6.778;2024-01-06T05:21:01;611.08;;;119.85;;
7783;SDS011;19359;51.402;6.778;2024-01-06T05:23:28;613.10;;;120.72;;
7783;SDS011;19359;51.402;6.778;2024-01-06T05:25:55;616.22;;;118.80;;
7783;SDS011;19359;51.402;6.778;2024-01-06T05:28:22;621.25;;;122.10;;
7783;SDS011;19359;51.402;6.778;2024-01-06T05:30:50;624.25;;;120.88;;
7783;SDS011;19359;51.402;6.778;2024-01-06T05:33:17;611.58;;;116.80;;
7783;SDS011;19359;51.402;6.778;2024-01-06T05:35:43;602.65;;;120.15;;
7783;SDS011;19359;51.402;6.778;2024-01-06T05:38:10;601.03;;;115.78;;
7783;SDS011;19359;51.402;6.778;2024-01-06T05:40:37;629.65;;;120.55;;
7783;SDS011;19359;51.402;6.778;2024-01-06T05:43:04;636.03;;;121.90;;
7783;SDS011;19359;51.402;6.778;2024-01-06T05:45:31;592.95;;;119.30;;
7783;SDS011;19359;51.402;6.778;2024-01-06T05:47:59;592.92;;;117.18;;
7783;SDS011;19359;51.402;6.778;2024-01-06T05:50:26;588.67;;;117.40;;
7783;SDS011;19359;51.402;6.778;2024-01-06T05:52:53;609.75;;;114.40;;
7783;SDS011;19359;51.402;6.778;2024-01-06T05:55:20;625.05;;;115.65;;
7783;SDS011;19359;51.402;6.778;2024-01-06T05:57:47;664.67;;;118.97;;
7783;SDS011;19359;51.402;6.778;2024-01-06T06:00:15;677.67;;;118.43;;
7783;SDS011;19359;51.402;6.778;2024-01-06T06:02:42;684.60;;;120.75;;
7783;SDS011;19359;51.402;6.778;2024-01-06T06:05:10;679.63;;;118.68;;
7783;SDS011;19359;51.402;6.778;2024-01-06T06:07:38;642.15;;;115.20;;
7783;SDS011;19359;51.402;6.778;2024-01-06T06:10:06;645.80;;;116.75;;
7783;SDS011;19359;51.402;6.778;2024-01-06T06:12:34;657.58;;;115.75;;
7783;SDS011;19359;51.402;6.778;2024-01-06T06:15:01;654.97;;;118.13;;
7783;SDS011;19359;51.402;6.778;2024-01-06T06:17:29;674.22;;;121.50;;
7783;SDS011;19359;51.402;6.778;2024-01-06T06:19:56;675.55;;;118.05;;
7783;SDS011;19359;51.402;6.778;2024-01-06T06:22:24;669.40;;;116.60;;
7783;SDS011;19359;51.402;6.778;2024-01-06T06:24:55;631.42;;;117.18;;
7783;SDS011;19359;51.402;6.778;2024-01-06T06:27:21;626.95;;;118.65;;
7783;SDS011;19359;51.402;6.778;2024-01-06T06:29:48;648.47;;;119.82;;
7783;SDS011;19359;51.402;6.778;2024-01-06T06:32:15;644.65;;;115.70;;
7783;SDS011;19359;51.402;6.778;2024-01-06T06:34:42;654.70;;;115.88;;
7783;SDS011;19359;51.402;6.778;2024-01-06T06:37:09;594.60;;;117.05;;
7783;SDS011;19359;51.402;6.778;2024-01-06T06:39:37;582.78;;;116.35;;
7783;SDS011;19359;51.402;6.778;2024-01-06T06:42:04;607.03;;;113.60;;
7783;SDS011;19359;51.402;6.778;2024-01-06T06:44:31;631.22;;;117.10;;
7783;SDS011;19359;51.402;6.778;2024-01-06T06:46:58;628.72;;;116.30;;
7783;SDS011;19359;51.402;6.778;2024-01-06T06:49:25;634.40;;;120.93;;
7783;SDS011;19359;51.402;6.778;2024-01-06T06:51:52;625.55;;;113.85;;
7783;SDS011;19359;51.402;6.778;2024-01-06T06:54:20;633.83;;;115.85;;
7783;SDS011;19359;51.402;6.778;2024-01-06T06:56:49;630.33;;;114.75;;
7783;SDS011;19359;51.402;6.778;2024-01-06T06:59:15;632.03;;;112.85;;
7783;SDS011;19359;51.402;6.778;2024-01-06T07:01:42;681.25;;;116.78;;
7783;SDS011;19359;51.402;6.778;2024-01-06T07:04:09;676.83;;;116.55;;
7783;SDS011;19359;51.402;6.778;2024-01-06T07:06:35;676.35;;;113.72;;
7783;SDS011;19359;51.402;6.778;2024-01-06T07:09:02;680.90;;;116.30;;
7783;SDS011;19359;51.402;6.778;2024-01-06T07:11:30;677.88;;;117.18;;
7783;SDS011;19359;51.402;6.778;2024-01-06T07:13:58;678.15;;;114.72;;
7783;SDS011;19359;51.402;6.778;2024-01-06T07:16:24;667.92;;;113.85;;
7783;SDS011;19359;51.402;6.778;2024-01-06T07:18:52;648.67;;;117.43;;
7783;SDS011;19359;51.402;6.778;2024-01-06T07:21:18;672.03;;;121.05;;
7783;SDS011;19359;51.402;6.778;2024-01-06T07:23:45;662.38;;;117.18;;
7783;SDS011;19359;51.402;6.778;2024-01-06T07:26:12;669.17;;;115.95;;
7783;SDS011;19359;51.402;6.778;2024-01-06T07:28:39;680.72;;;118.13;;
7783;SDS011;19359;51.402;6.778;2024-01-06T07:31:07;683.90;;;116.45;;
7783;SDS011;19359;51.402;6.778;2024-01-06T07:33:34;685.55;;;119.30;;
7783;SDS011;19359;51.402;6.778;2024-01-06T07:36:01;680.35;;;116.90;;
7783;SDS011;19359;51.402;6.778;2024-01-06T07:38:28;674.78;;;115.00;;
7783;SDS011;19359;51.402;6.778;2024-01-06T07:40:56;679.78;;;112.60;;
7783;SDS011;19359;51.402;6.778;2024-01-06T07:43:22;677.97;;;114.32;;
7783;SDS011;19359;51.402;6.778;2024-01-06T07:45:49;683.17;;;115.70;;
7783;SDS011;19359;51.402;6.778;2024-01-06T07:48:17;674.55;;;113.10;;
7783;SDS011;19359;51.402;6.778;2024-01-06T07:50:44;671.60;;;111.30;;
7783;SDS011;19359;51.402;6.778;2024-01-06T07:53:11;667.83;;;113.30;;
7783;SDS011;19359;51.402;6.778;2024-01-06T07:55:39;675.83;;;111.60;;
7783;SDS011;19359;51.402;6.778;2024-01-06T07:58:05;672.35;;;114.07;;
7783;SDS011;19359;51.402;6.778;2024-01-06T08:00:32;671.88;;;111.97;;
7783;SDS011;19359;51.402;6.778;2024-01-06T08:02:59;671.75;;;112.85;;
7783;SDS011;19359;51.402;6.778;2024-01-06T08:05:28;672.63;;;111.97;;
7783;SDS011;19359;51.402;6.778;2024-01-06T08:07:54;670.65;;;111.75;;
7783;SDS011;19359;51.402;6.778;2024-01-06T08:10:21;677.47;;;115.70;;
7783;SDS011;19359;51.402;6.778;2024-01-06T08:12:48;674.00;;;114.47;;
7783;SDS011;19359;51.402;6.778;2024-01-06T08:15:15;679.53;;;115.28;;
7783;SDS011;19359;51.402;6.778;2024-01-06T08:17:41;670.47;;;111.03;;
7783;SDS011;19359;51.402;6.778;2024-01-06T08:20:08;674.35;;;112.15;;
7783;SDS011;19359;51.402;6.778;2024-01-06T08:22:37;678.22;;;112.75;;
7783;SDS011;19359;51.402;6.778;2024-01-06T08:25:04;678.08;;;113.75;;
7783;SDS011;19359;51.402;6.778;2024-01-06T08:27:32;677.13;;;114.75;;
7783;SDS011;19359;51.402;6.778;2024-01-06T08:30:00;674.65;;;113.32;;
7783;SDS011;19359;51.402;6.778;2024-01-06T08:32:27;673.70;;;110.25;;
7783;SDS011;19359;51.402;6.778;2024-01-06T08:34:53;676.50;;;114.38;;
7783;SDS011;19359;51.402;6.778;2024-01-06T08:37:20;680.35;;;115.47;;
7783;SDS011;19359;51.402;6.778;2024-01-06T08:39:49;666.40;;;108.32;;
7783;SDS011;19359;51.402;6.778;2024-01-06T08:42:15;677.08;;;116.60;;
7783;SDS011;19359;51.402;6.778;2024-01-06T08:44:42;679.85;;;116.45;;
7783;SDS011;19359;51.402;6.778;2024-01-06T08:47:09;672.45;;;114.47;;
7783;SDS011;19359;51.402;6.778;2024-01-06T08:49:37;672.97;;;115.00;;
7783;SDS011;19359;51.402;6.778;2024-01-06T08:52:04;674.53;;;115.10;;
7783;SDS011;19359;51.402;6.778;2024-01-06T08:54:31;662.00;;;111.97;;
7783;SDS011;19359;51.402;6.778;2024-01-06T08:56:59;668.45;;;115.78;;
7783;SDS011;19359;51.402;6.778;2024-01-06T08:59:26;665.92;;;111.22;;
7783;SDS011;19359;51.402;6.778;2024-01-06T09:01:52;664.35;;;112.30;;
7783;SDS011;19359;51.402;6.778;2024-01-06T09:04:19;668.38;;;114.30;;
7783;SDS011;19359;51.402;6.778;2024-01-06T09:06:46;672.13;;;115.60;;
7783;SDS011;19359;51.402;6.778;2024-01-06T09:09:13;667.42;;;113.25;;
7783;SDS011;19359;51.402;6.778;2024-01-06T09:11:40;666.35;;;110.03;;
7783;SDS011;19359;51.402;6.778;2024-01-06T09:14:08;679.65;;;116.60;;
7783;SDS011;19359;51.402;6.778;2024-01-06T09:16:35;678.55;;;117.05;;
7783;SDS011;19359;51.402;6.778;2024-01-06T09:19:02;672.65;;;113.63;;
7783;SDS011;19359;51.402;6.778;2024-01-06T09:21:29;671.22;;;113.25;;
7783;SDS011;19359;51.402;6.778;2024-01-06T09:23:56;664.90;;;111.78;;
7783;SDS011;19359;51.402;6.778;2024-01-06T09:26:23;664.03;;;110.80;;
7783;SDS011;19359;51.402;6.778;2024-01-06T09:28:50;668.33;;;111.18;;
7783;SDS011;19359;51.402;6.778;2024-01-06T09:31:18;669.92;;;112.78;;
7783;SDS011;19359;51.402;6.778;2024-01-06T09:33:44;664.60;;;111.53;;
7783;SDS011;19359;51.402;6.778;2024-01-06T09:36:11;664.88;;;112.18;;
7783;SDS011;19359;51.402;6.778;2024-01-06T09:38:38;659.95;;;107.22;;
7783;SDS011;19359;51.402;6.778;2024-01-06T09:41:05;662.50;;;110.18;;
7783;SDS011;19359;51.402;6.778;2024-01-06T09:43:32;662.45;;;110.10;;
7783;SDS011;19359;51.402;6.778;2024-01-06T09:46:02;655.63;;;109.55;;
7783;SDS011;19359;51.402;6.778;2024-01-06T09:48:35;661.15;;;108.65;;
7783;SDS011;19359;51.402;6.778;2024-01-06T09:51:06;664.58;;;108.72;;
7783;SDS011;19359;51.402;6.778;2024-01-06T09:53:40;662.50;;;107.90;;
7783;SDS011;19359;51.402;6.778;2024-01-06T09:56:13;661.95;;;105.55;;
7783;SDS011;19359;51.402;6.778;2024-01-06T09:58:41;655.58;;;106.35;;
7783;SDS011;19359;51.402;6.778;2024-01-06T10:01:09;656.97;;;105.75;;
7783;SDS011;19359;51.402;6.778;2024-01-06T10:03:38;659.13;;;107.93;;
7783;SDS011;19359;51.402;6.778;2024-01-06T10:06:05;656.65;;;106.68;;
7783;SDS011;19359;51.402;6.778;2024-01-06T10:08:34;663.83;;;108.30;;
7783;SDS011;19359;51.402;6.778;2024-01-06T10:11:01;668.00;;;107.78;;
7783;SDS011;19359;51.402;6.778;2024-01-06T10:13:28;663.25;;;108.82;;
7783;SDS011;19359;51.402;6.778;2024-01-06T10:15:55;661.22;;;107.82;;
7783;SDS011;19359;51.402;6.778;2024-01-06T10:18:22;662.25;;;108.30;;
7783;SDS011;19359;51.402;6.778;2024-01-06T10:20:50;657.38;;;106.63;;
7783;SDS011;19359;51.402;6.778;2024-01-06T10:23:18;659.78;;;106.28;;
7783;SDS011;19359;51.402;6.778;2024-01-06T10:25:45;652.38;;;104.32;;
7783;SDS011;19359;51.402;6.778;2024-01-06T10:28:12;661.47;;;106.18;;
7783;SDS011;19359;51.402;6.778;2024-01-06T10:30:39;662.80;;;106.00;;
7783;SDS011;19359;51.402;6.778;2024-01-06T10:33:08;662.88;;;108.15;;
7783;SDS011;19359;51.402;6.778;2024-01-06T10:35:35;659.17;;;104.28;;
7783;SDS011;19359;51.402;6.778;2024-01-06T10:38:04;657.50;;;103.63;;
7783;SDS011;19359;51.402;6.778;2024-01-06T10:40:32;656.33;;;105.15;;
7783;SDS011;19359;51.402;6.778;2024-01-06T10:42:59;662.08;;;106.32;;
7783;SDS011;19359;51.402;6.778;2024-01-06T10:45:26;663.85;;;106.35;;
7783;SDS011;19359;51.402;6.778;2024-01-06T10:47:54;654.28;;;105.10;;
7783;SDS011;19359;51.402;6.778;2024-01-06T10:50:22;659.63;;;107.70;;
7783;SDS011;19359;51.402;6.778;2024-01-06T10:52:49;655.10;;;105.20;;
7783;SDS011;19359;51.402;6.778;2024-01-06T10:55:19;664.92;;;108.38;;
7783;SDS011;19359;51.402;6.778;2024-01-06T10:57:47;663.33;;;108.75;;
7783;SDS011;19359;51.402;6.778;2024-01-06T11:00:16;653.92;;;105.82;;
7783;SDS011;19359;51.402;6.778;2024-01-06T11:02:44;662.05;;;110.30;;
7783;SDS011;19359;51.402;6.778;2024-01-06T11:05:12;654.70;;;103.80;;
7783;SDS011;19359;51.402;6.778;2024-01-06T11:07:39;660.97;;;106.70;;
7783;SDS011;19359;51.402;6.778;2024-01-06T11:10:08;673.97;;;103.82;;
7783;SDS011;19359;51.402;6.778;2024-01-06T11:12:43;660.55;;;107.32;;
7783;SDS011;19359;51.402;6.778;2024-01-06T11:15:10;651.17;;;104.30;;
7783;SDS011;19359;51.402;6.778;2024-01-06T11:18:07;656.05;;;107.28;;
7783;SDS011;19359;51.402;6.778;2024-01-06T11:20:34;652.70;;;101.85;;
7783;SDS011;19359;51.402;6.778;2024-01-06T11:25:43;653.38;;;102.53;;
7783;SDS011;19359;51.402;6.778;2024-01-06T11:28:11;656.10;;;107.20;;
7783;SDS011;19359;51.402;6.778;2024-01-06T11:30:39;641.35;;;101.30;;
7783;SDS011;19359;51.402;6.778;2024-01-06T11:33:05;644.88;;;103.05;;
7783;SDS011;19359;51.402;6.778;2024-01-06T11:35:32;652.00;;;104.35;;
7783;SDS011;19359;51.402;6.778;2024-01-06T11:38:00;652.22;;;104.47;;
7783;SDS011;19359;51.402;6.778;2024-01-06T11:40:32;641.53;;;102.13;;
7783;SDS011;19359;51.402;6.778;2024-01-06T11:43:00;642.45;;;102.30;;
7783;SDS011;19359;51.402;6.778;2024-01-06T11:45:29;640.97;;;98.07;;
7783;SDS011;19359;51.402;6.778;2024-01-06T11:47:57;648.17;;;102.68;;
7783;SDS011;19359;51.402;6.778;2024-01-06T11:50:27;643.47;;;102.22;;
7783;SDS011;19359;51.402;6.778;2024-01-06T11:52:55;644.88;;;101.70;;
7783;SDS011;19359;51.402;6.778;2024-01-06T11:55:22;653.45;;;107.07;;
7783;SDS011;19359;51.402;6.778;2024-01-06T11:57:49;649.35;;;105.38;;
7783;SDS011;19359;51.402;6.778;2024-01-06T12:00:16;647.63;;;100.30;;
7783;SDS011;19359;51.402;6.778;2024-01-06T12:02:44;647.95;;;103.20;;
7783;SDS011;19359;51.402;6.778;2024-01-06T12:05:14;646.58;;;103.07;;
7783;SDS011;19359;51.402;6.778;2024-01-06T12:07:43;639.65;;;102.00;;
7783;SDS011;19359;51.402;6.778;2024-01-06T12:10:10;648.80;;;101.30;;
7783;SDS011;19359;51.402;6.778;2024-01-06T12:12:39;639.55;;;99.28;;
7783;SDS011;19359;51.402;6.778;2024-01-06T12:15:06;645.72;;;100.90;;
7783;SDS011;19359;51.402;6.778;2024-01-06T12:17:34;647.13;;;103.80;;
7783;SDS011;19359;51.402;6.778;2024-01-06T12:20:03;645.25;;;100.88;;
7783;SDS011;19359;51.402;6.778;2024-01-06T12:22:33;645.45;;;102.22;;
7783;SDS011;19359;51.402;6.778;2024-01-06T12:25:00;654.65;;;102.03;;
7783;SDS011;19359;51.402;6.778;2024-01-06T12:27:29;654.63;;;103.57;;
7783;SDS011;19359;51.402;6.778;2024-01-06T12:29:57;652.85;;;104.72;;
7783;SDS011;19359;51.402;6.778;2024-01-06T12:32:23;655.90;;;104.72;;
7783;SDS011;19359;51.402;6.778;2024-01-06T12:34:50;652.05;;;104.95;;
7783;SDS011;19359;51.402;6.778;2024-01-06T12:37:19;651.05;;;103.38;;
7783;SDS011;19359;51.402;6.778;2024-01-06T12:39:46;654.25;;;108.60;;
7783;SDS011;19359;51.402;6.778;2024-01-06T12:42:14;648.47;;;102.45;;
7783;SDS011;19359;51.402;6.778;2024-01-06T12:44:42;649.83;;;103.10;;
7783;SDS011;19359;51.402;6.778;2024-01-06T12:47:09;646.55;;;101.60;;
7783;SDS011;19359;51.402;6.778;2024-01-06T12:49:37;647.40;;;104.10;;
7783;SDS011;19359;51.402;6.778;2024-01-06T12:52:04;646.92;;;103.35;;
7783;SDS011;19359;51.402;6.778;2024-01-06T12:54:32;642.88;;;100.03;;
7783;SDS011;19359;51.402;6.778;2024-01-06T12:56:59;650.08;;;101.15;;
7783;SDS011;19359;51.402;6.778;2024-01-06T12:59:26;645.03;;;101.82;;
7783;SDS011;19359;51.402;6.778;2024-01-06T13:01:54;650.33;;;103.75;;
7783;SDS011;19359;51.402;6.778;2024-01-06T13:04:21;645.10;;;101.28;;
7783;SDS011;19359;51.402;6.778;2024-01-06T13:06:48;640.45;;;101.35;;
7783;SDS011;19359;51.402;6.778;2024-01-06T13:09:14;637.03;;;99.10;;
7783;SDS011;19359;51.402;6.778;2024-01-06T13:11:43;650.25;;;103.00;;
7783;SDS011;19359;51.402;6.778;2024-01-06T13:14:11;638.38;;;98.53;;
7783;SDS011;19359;51.402;6.778;2024-01-06T13:16:38;643.05;;;100.85;;
7783;SDS011;19359;51.402;6.778;2024-01-06T13:19:04;643.95;;;101.50;;
7783;SDS011;19359;51.402;6.778;2024-01-06T13:21:31;644.17;;;101.43;;
7783;SDS011;19359;51.402;6.778;2024-01-06T13:23:58;641.58;;;100.15;;
7783;SDS011;19359;51.402;6.778;2024-01-06T13:26:27;650.75;;;104.75;;
7783;SDS011;19359;51.402;6.778;2024-01-06T13:28:55;642.92;;;100.47;;
7783;SDS011;19359;51.402;6.778;2024-01-06T13:31:22;646.28;;;101.57;;
7783;SDS011;19359;51.402;6.778;2024-01-06T13:33:49;643.47;;;100.00;;
7783;SDS011;19359;51.402;6.778;2024-01-06T13:36:17;641.75;;;101.10;;
7783;SDS011;19359;51.402;6.778;2024-01-06T13:38:43;644.13;;;101.47;;
7783;SDS011;19359;51.402;6.778;2024-01-06T13:41:10;655.72;;;102.85;;
7783;SDS011;19359;51.402;6.778;2024-01-06T13:43:37;642.25;;;100.28;;
7783;SDS011;19359;51.402;6.778;2024-01-06T13:46:05;650.15;;;104.20;;
7783;SDS011;19359;51.402;6.778;2024-01-06T13:48:32;636.50;;;97.32;;
7783;SDS011;19359;51.402;6.778;2024-01-06T13:50:59;639.35;;;99.25;;
7783;SDS011;19359;51.402;6.778;2024-01-06T13:53:25;637.25;;;99.10;;
7783;SDS011;19359;51.402;6.778;2024-01-06T13:55:52;644.50;;;102.82;;
7783;SDS011;19359;51.402;6.778;2024-01-06T13:58:19;635.08;;;96.93;;
7783;SDS011;19359;51.402;6.778;2024-01-06T14:00:46;639.15;;;100.40;;
7783;SDS011;19359;51.402;6.778;2024-01-06T14:03:15;638.38;;;101.18;;
7783;SDS011;19359;51.402;6.778;2024-01-06T14:05:42;642.33;;;100.60;;
7783;SDS011;19359;51.402;6.778;2024-01-06T14:08:09;634.28;;;96.97;;
7783;SDS011;19359;51.402;6.778;2024-01-06T14:10:35;637.30;;;97.47;;
7783;SDS011;19359;51.402;6.778;2024-01-06T14:13:03;642.45;;;98.97;;